createdAt,value
2023-06-29T00:02:03.801Z,100996.47
2023-06-29T00:04:33.868Z,101001.78
2023-06-29T00:07:04.252Z,101005.50
2023-06-29T00:09:32.273Z,101006.00
2023-06-29T00:12:00.135Z,100997.97
2023-06-29T00:14:28.202Z,101001.84
2023-06-29T00:16:56.694Z,101005.00
2023-06-29T00:19:24.638Z,101006.84
2023-06-29T00:21:52.559Z,101005.00
2023-06-29T00:24:21.886Z,100996.78
2023-06-29T00:26:50.209Z,101005.75
2023-06-29T00:29:19.772Z,100999.84
2023-06-29T00:31:47.727Z,100996.63
2023-06-29T00:34:15.746Z,101000.19
2023-06-29T00:36:43.651Z,100992.09
2023-06-29T00:39:11.608Z,101000.19
2023-06-29T00:41:40.878Z,100993.09
2023-06-29T00:44:10.498Z,100993.09
2023-06-29T00:46:38.479Z,100999.13
2023-06-29T00:49:06.475Z,100995.84
2023-06-29T00:51:34.602Z,100995.69
2023-06-29T00:54:02.608Z,100990.41
2023-06-29T00:56:33.073Z,100994.59
2023-06-29T00:59:02.630Z,100990.25
2023-06-29T01:01:32.602Z,100994.53
2023-06-29T01:04:01.167Z,100989.22
2023-06-29T01:06:32.736Z,100992.19
2023-06-29T01:09:05.625Z,100982.44
2023-06-29T01:11:35.113Z,100996.84
2023-06-29T01:14:08.396Z,100990.03
2023-06-29T01:16:38.412Z,100982.25
2023-06-29T01:19:10.478Z,100976.06
2023-06-29T01:21:55.897Z,100982.25
2023-06-29T01:24:28.108Z,100982.03
2023-06-29T01:27:04.757Z,100978.88
2023-06-29T01:29:33.096Z,100975.59
2023-06-29T01:32:04.983Z,100983.63
2023-06-29T01:34:34.080Z,100971.31
2023-06-29T01:37:04.843Z,100968.50
2023-06-29T01:39:39.509Z,100970.28
2023-06-29T01:42:10.338Z,100972.03
2023-06-29T01:44:38.573Z,100964.34
2023-06-29T01:47:08.144Z,100964.50
2023-06-29T01:49:37.031Z,100960.13
2023-06-29T01:52:06.286Z,100957.50
2023-06-29T01:54:34.398Z,100952.50
2023-06-29T01:57:02.334Z,100948.88
2023-06-29T01:59:31.941Z,100951.38
2023-06-29T02:02:00.087Z,100957.50
2023-06-29T02:04:28.053Z,100961.16
2023-06-29T02:06:56.020Z,100954.75
2023-06-29T02:09:24.030Z,100959.13
2023-06-29T02:11:52.172Z,100956.53
2023-06-29T02:14:20.192Z,100959.28
2023-06-29T02:16:50.338Z,100954.84
2023-06-29T02:19:18.266Z,100953.69
2023-06-29T02:21:46.176Z,100945.16
2023-06-29T02:24:14.084Z,100946.31
2023-06-29T02:26:42.165Z,100945.53
2023-06-29T02:29:10.212Z,100941.78
2023-06-29T02:31:41.080Z,100933.84
2023-06-29T02:34:12.390Z,100934.28
2023-06-29T02:36:40.314Z,100925.47
2023-06-29T02:39:08.449Z,100916.97
2023-06-29T02:41:36.569Z,100912.81
2023-06-29T02:44:04.493Z,100921.63
2023-06-29T02:46:32.784Z,100924.63
2023-06-29T02:49:00.781Z,100916.78
2023-06-29T02:51:30.152Z,100923.00
2023-06-29T02:54:04.065Z,100923.16
2023-06-29T02:56:32.015Z,100920.69
2023-06-29T02:58:59.945Z,100920.34
2023-06-29T03:01:29.734Z,100919.47
2023-06-29T03:03:58.555Z,100912.09
2023-06-29T03:06:28.128Z,100918.06
2023-06-29T03:09:00.080Z,100906.34
2023-06-29T03:11:27.997Z,100908.38
2023-06-29T03:13:57.124Z,100912.09
2023-06-29T03:16:25.139Z,100906.81
2023-06-29T03:18:53.058Z,100907.66
2023-06-29T03:21:21.803Z,100904.25
2023-06-29T03:23:50.753Z,100903.59
2023-06-29T03:26:20.120Z,100887.53
2023-06-29T03:28:48.037Z,100900.00
2023-06-29T03:31:16.180Z,100900.25
2023-06-29T03:33:45.310Z,100902.16
2023-06-29T03:36:13.835Z,100899.66
2023-06-29T03:38:41.754Z,100904.59
2023-06-29T03:41:09.658Z,100903.81
2023-06-29T03:43:38.918Z,100902.97
2023-06-29T03:46:06.832Z,100897.59
2023-06-29T03:48:34.886Z,100900.09
2023-06-29T03:51:02.859Z,100893.78
2023-06-29T03:53:30.827Z,100896.44
2023-06-29T03:55:58.798Z,100896.50
2023-06-29T03:58:26.834Z,100888.34
2023-06-29T04:00:56.239Z,100896.06
2023-06-29T04:03:24.571Z,100892.78
2023-06-29T04:05:52.550Z,100894.72
2023-06-29T04:08:20.463Z,100893.78
2023-06-29T04:10:48.432Z,100891.44
2023-06-29T04:13:16.352Z,100887.06
2023-06-29T04:15:44.723Z,100885.03
2023-06-29T04:18:14.443Z,100886.91
2023-06-29T04:20:42.357Z,100898.44
2023-06-29T04:23:12.736Z,100886.06
2023-06-29T04:25:43.694Z,100879.69
2023-06-29T04:28:13.597Z,100882.81
2023-06-29T04:30:42.179Z,100874.81
2023-06-29T04:33:12.019Z,100875.50
2023-06-29T04:35:42.256Z,100876.13
2023-06-29T04:38:10.763Z,100872.25
2023-06-29T04:40:39.035Z,100871.34
2023-06-29T04:43:07.383Z,100868.53
2023-06-29T04:45:35.439Z,100865.00
2023-06-29T04:48:03.808Z,100867.66
2023-06-29T04:50:36.820Z,100864.44
2023-06-29T04:53:10.423Z,100862.72
2023-06-29T04:55:40.619Z,100860.31
2023-06-29T04:58:08.764Z,100855.63
2023-06-29T05:00:36.713Z,100853.91
2023-06-29T05:03:04.722Z,100856.66
2023-06-29T05:05:32.762Z,100856.41
2023-06-29T05:08:00.844Z,100857.69
2023-06-29T05:10:30.131Z,100856.59
2023-06-29T05:12:58.095Z,100853.38
2023-06-29T05:15:26.030Z,100857.69
2023-06-29T05:17:54.915Z,100866.09
2023-06-29T05:20:23.603Z,100856.97
2023-06-29T05:22:51.525Z,100858.38
2023-06-29T05:25:19.866Z,100860.13
2023-06-29T05:27:49.218Z,100857.19
2023-06-29T05:30:17.853Z,100865.00
2023-06-29T05:32:45.963Z,100868.53
2023-06-29T05:35:13.931Z,100863.81
2023-06-29T05:37:41.819Z,100854.78
2023-06-29T05:40:11.021Z,100854.69
2023-06-29T05:42:39.216Z,100853.88
2023-06-29T05:45:09.360Z,100855.19
2023-06-29T05:47:37.314Z,100850.03
2023-06-29T05:50:06.256Z,100863.44
2023-06-29T05:52:34.925Z,100859.91
2023-06-29T05:55:03.131Z,100854.75
2023-06-29T05:57:31.024Z,100857.72
2023-06-29T05:59:59.028Z,100855.31
2023-06-29T06:02:28.506Z,100864.66
2023-06-29T06:04:56.393Z,100855.13
2023-06-29T06:07:31.795Z,100863.22
2023-06-29T06:10:00.156Z,100861.38
2023-06-29T06:12:28.176Z,100855.78
2023-06-29T06:14:56.156Z,100854.25
2023-06-29T06:17:24.171Z,100856.84
2023-06-29T06:19:53.621Z,100860.97
2023-06-29T06:22:21.573Z,100858.69
2023-06-29T06:24:49.681Z,100855.41
2023-06-29T06:27:17.580Z,100859.75
2023-06-29T06:29:45.957Z,100855.97
2023-06-29T06:32:14.021Z,100853.06
2023-06-29T06:34:41.942Z,100853.38
2023-06-29T06:37:11.263Z,100854.53
2023-06-29T06:39:39.189Z,100856.59
2023-06-29T06:42:07.844Z,100856.28
2023-06-29T06:44:38.163Z,100852.69
2023-06-29T06:47:06.871Z,100850.22
2023-06-29T06:49:34.761Z,100846.81
2023-06-29T06:52:03.355Z,100851.75
2023-06-29T06:54:32.839Z,100855.09
2023-06-29T06:57:00.845Z,100853.22
2023-06-29T06:59:28.761Z,100857.53
2023-06-29T07:01:56.768Z,100858.09
2023-06-29T07:04:24.689Z,100847.78
2023-06-29T07:06:52.619Z,100850.56
2023-06-29T07:09:20.594Z,100848.53
2023-06-29T07:11:50.121Z,100846.44
2023-06-29T07:14:20.855Z,100850.84
2023-06-29T07:16:49.387Z,100850.81
2023-06-29T07:24:23.171Z,100842.06
2023-06-29T07:26:52.460Z,100848.19
2023-06-29T07:29:20.419Z,100841.66
2023-06-29T07:31:48.649Z,100839.00
2023-06-29T07:34:16.612Z,100841.13
2023-06-29T07:36:44.618Z,100846.03
2023-06-29T07:39:12.535Z,100836.78
2023-06-29T07:41:40.546Z,100836.66
2023-06-29T07:44:09.963Z,100840.88
2023-06-29T07:46:37.980Z,100840.31
2023-06-29T07:49:05.940Z,100834.81
2023-06-29T07:51:34.835Z,100837.31
2023-06-29T07:54:03.491Z,100829.50
2023-06-29T07:59:02.735Z,100835.84
2023-06-29T08:01:32.160Z,100835.09
2023-06-29T08:04:03.478Z,100831.47
2023-06-29T08:09:05.174Z,100841.28
2023-06-29T08:11:33.320Z,100830.47
2023-06-29T08:14:01.288Z,100827.59
2023-06-29T08:16:29.221Z,100825.94
2023-06-29T08:18:59.311Z,100831.00
2023-06-29T08:21:27.521Z,100831.00
2023-06-29T08:23:55.450Z,100827.31
2023-06-29T08:26:23.389Z,100831.66
2023-06-29T08:28:51.336Z,100825.03
2023-06-29T08:31:20.464Z,100837.50
2023-06-29T08:33:50.377Z,100842.06
2023-06-29T08:36:20.121Z,100835.00
2023-06-29T08:38:49.800Z,100836.28
2023-06-29T08:41:18.112Z,100836.72
2023-06-29T08:43:46.177Z,100830.44
2023-06-29T08:46:14.577Z,100830.47
2023-06-29T08:48:44.251Z,100827.16
2023-06-29T08:51:17.292Z,100824.81
2023-06-29T08:53:48.049Z,100823.53
2023-06-29T08:56:16.637Z,100816.59
2023-06-29T08:58:45.505Z,100823.44
2023-06-29T09:01:13.926Z,100822.13
2023-06-29T09:03:42.667Z,100817.75
2023-06-29T09:06:11.232Z,100821.31
2023-06-29T09:08:40.681Z,100818.41
2023-06-29T09:11:10.310Z,100817.03
2023-06-29T09:13:38.263Z,100821.09
2023-06-29T09:16:07.027Z,100805.44
2023-06-29T09:18:35.557Z,100805.44
2023-06-29T09:21:07.099Z,100811.03
2023-06-29T09:23:35.772Z,100807.72
2023-06-29T09:26:06.773Z,100807.00
2023-06-29T09:28:37.596Z,100809.97
2023-06-29T09:31:09.795Z,100797.88
2023-06-29T09:33:37.947Z,100800.56
2023-06-29T09:36:09.448Z,100799.22
2023-06-29T09:38:38.445Z,100801.88
2023-06-29T09:41:07.801Z,100793.38
2023-06-29T09:43:37.254Z,100797.22
2023-06-29T09:46:09.371Z,100795.03
2023-06-29T09:51:24.454Z,100786.97
2023-06-29T09:53:52.946Z,100788.34
2023-06-29T09:56:22.502Z,100790.34
2023-06-29T09:58:54.269Z,100775.59
2023-06-29T10:01:22.837Z,100781.38
2023-06-29T10:03:51.034Z,100774.00
2023-06-29T10:06:24.053Z,100782.78
2023-06-29T10:08:56.684Z,100773.44
2023-06-29T10:11:29.516Z,100773.44
2023-06-29T10:14:02.579Z,100779.41
2023-06-29T10:16:33.647Z,100776.63
2023-06-29T10:19:11.713Z,100775.00
2023-06-29T10:21:39.724Z,100768.66
2023-06-29T10:24:10.194Z,100777.94
2023-06-29T10:26:39.337Z,100769.78
2023-06-29T10:29:10.152Z,100774.69
2023-06-29T10:31:38.961Z,100767.00
2023-06-29T10:34:08.525Z,100765.28
2023-06-29T10:36:47.621Z,100768.31
2023-06-29T10:39:41.498Z,100761.31
2023-06-29T10:42:16.548Z,100763.63
2023-06-29T10:44:48.988Z,100758.50
2023-06-29T10:47:30.134Z,100756.28
2023-06-29T10:50:20.077Z,100746.88
2023-06-29T10:52:50.182Z,100744.00
2023-06-29T10:55:19.703Z,100754.69
2023-06-29T10:57:48.318Z,100746.56
2023-06-29T11:00:18.404Z,100738.97
2023-06-29T11:02:49.355Z,100739.00
2023-06-29T11:05:18.135Z,100734.38
2023-06-29T11:07:48.166Z,100725.31
2023-06-29T11:10:16.299Z,100727.16
2023-06-29T11:12:44.310Z,100731.53
2023-06-29T11:18:06.582Z,100724.66
2023-06-29T11:20:35.906Z,100727.13
2023-06-29T11:23:03.997Z,100732.41
2023-06-29T11:25:32.233Z,100733.75
2023-06-29T11:28:00.858Z,100729.19
2023-06-29T11:30:28.937Z,100740.00
2023-06-29T11:32:56.909Z,100739.19
2023-06-29T11:35:26.403Z,100735.47
2023-06-29T11:38:01.828Z,100740.28
2023-06-29T11:40:30.932Z,100732.13
2023-06-29T11:42:58.937Z,100733.19
2023-06-29T11:45:26.891Z,100733.78
2023-06-29T11:47:58.469Z,100739.38
2023-06-29T11:50:28.196Z,100732.66
2023-06-29T11:52:56.436Z,100728.97
2023-06-29T11:55:24.425Z,100731.34
2023-06-29T11:57:54.217Z,100731.53
2023-06-29T12:00:43.023Z,100724.22
2023-06-29T12:03:12.495Z,100726.53
2023-06-29T12:05:46.384Z,100720.97
2023-06-29T12:08:17.079Z,100712.91
2023-06-29T12:10:45.028Z,100721.94
2023-06-29T12:13:13.005Z,100720.06
2023-06-29T12:17:59.352Z,100717.31
2023-06-29T12:18:36.775Z,100709.69
2023-06-29T12:21:06.696Z,100704.97
2023-06-29T12:23:35.198Z,100704.19
2023-06-29T12:26:03.531Z,100708.63
2023-06-29T12:28:31.416Z,100716.22
2023-06-29T12:30:59.324Z,100708.16
2023-06-29T12:33:27.350Z,100700.97
2023-06-29T12:35:55.205Z,100705.63
2023-06-29T12:38:24.474Z,100698.94
2023-06-29T12:40:52.760Z,100700.19
2023-06-29T12:43:20.597Z,100697.97
2023-06-29T12:45:48.426Z,100695.22
2023-06-29T12:48:16.612Z,100700.88
2023-06-29T12:50:44.971Z,100697.94
2023-06-29T12:53:12.971Z,100695.25
2023-06-29T12:55:42.228Z,100692.50
2023-06-29T12:58:10.152Z,100702.72
2023-06-29T13:00:38.043Z,100692.88
2023-06-29T13:03:10.474Z,100693.25
2023-06-29T13:05:38.389Z,100694.38
2023-06-29T13:08:06.794Z,100697.81
2023-06-29T13:10:35.307Z,100686.06
2023-06-29T13:13:04.926Z,100688.72
2023-06-29T13:15:32.955Z,100689.78
2023-06-29T13:18:00.839Z,100684.88
2023-06-29T13:20:28.820Z,100685.28
2023-06-29T13:22:56.794Z,100686.06
2023-06-29T13:25:24.755Z,100689.47
2023-06-29T13:27:53.210Z,100681.31
2023-06-29T13:30:22.467Z,100676.63
2023-06-29T13:32:50.536Z,100681.34
2023-06-29T13:35:18.433Z,100682.97
2023-06-29T13:37:46.276Z,100686.69
2023-06-29T13:40:16.278Z,100690.00
2023-06-29T13:42:44.228Z,100682.34
2023-06-29T13:45:12.339Z,100677.81
2023-06-29T13:47:44.358Z,100683.00
2023-06-29T13:50:12.780Z,100684.47
2023-06-29T13:52:40.826Z,100676.16
2023-06-29T13:55:09.398Z,100675.25
2023-06-29T13:57:37.287Z,100680.72
2023-06-29T14:00:06.087Z,100682.19
2023-06-29T14:02:35.248Z,100681.56
2023-06-29T14:05:04.647Z,100682.44
2023-06-29T14:07:32.574Z,100677.19
2023-06-29T14:10:00.511Z,100683.06
2023-06-29T14:12:28.376Z,100681.22
2023-06-29T14:14:56.266Z,100672.94
2023-06-29T14:17:24.221Z,100666.84
2023-06-29T14:19:53.250Z,100665.84
2023-06-29T14:22:22.457Z,100667.94
2023-06-29T14:24:50.294Z,100668.22
2023-06-29T14:27:19.924Z,100681.31
2023-06-29T14:29:47.841Z,100679.06
2023-06-29T14:32:15.713Z,100673.88
2023-06-29T14:34:45.440Z,100677.44
2023-06-29T14:37:13.319Z,100681.06
2023-06-29T14:39:42.674Z,100685.72
2023-06-29T14:42:11.075Z,100675.97
2023-06-29T14:44:39.462Z,100678.38
2023-06-29T14:47:08.129Z,100677.94
2023-06-29T14:49:36.080Z,100676.94
2023-06-29T14:52:04.179Z,100682.75
2023-06-29T14:54:31.968Z,100678.41
2023-06-29T14:57:01.198Z,100677.94
2023-06-29T14:59:29.126Z,100673.06
2023-06-29T15:01:57.191Z,100674.88
2023-06-29T15:04:25.254Z,100667.38
2023-06-29T15:06:54.051Z,100660.41
2023-06-29T15:09:23.444Z,100661.59
2023-06-29T15:11:51.450Z,100662.88
2023-06-29T15:14:20.699Z,100666.88
2023-06-29T15:16:48.619Z,100654.06
2023-06-29T15:19:16.504Z,100654.19
2023-06-29T15:21:44.418Z,100663.25
2023-06-29T15:24:12.299Z,100654.66
2023-06-29T15:26:40.301Z,100652.72
2023-06-29T15:29:08.543Z,100656.16
2023-06-29T15:31:37.804Z,100661.91
2023-06-29T15:34:05.743Z,100651.69
2023-06-29T15:36:37.084Z,100656.81
2023-06-29T15:39:05.692Z,100648.00
2023-06-29T15:41:33.522Z,100644.22
2023-06-29T15:44:03.028Z,100645.00
2023-06-29T15:46:31.620Z,100640.59
2023-06-29T15:49:01.979Z,100644.94
2023-06-29T15:51:29.865Z,100645.63
2023-06-29T15:53:57.732Z,100641.16
2023-06-29T15:56:25.630Z,100642.00
2023-06-29T15:58:55.612Z,100642.22
2023-06-29T16:01:23.510Z,100648.38
2023-06-29T16:03:51.795Z,100632.59
2023-06-29T16:06:28.454Z,100638.31
2023-06-29T16:08:56.549Z,100629.69
2023-06-29T16:11:24.509Z,100632.94
2023-06-29T16:13:52.399Z,100627.72
2023-06-29T16:16:20.290Z,100629.25
2023-06-29T16:18:48.191Z,100628.88
2023-06-29T16:21:16.040Z,100635.25
2023-06-29T16:23:45.396Z,100619.22
2023-06-29T16:26:16.763Z,100627.84
2023-06-29T16:28:45.138Z,100622.91
2023-06-29T16:31:13.122Z,100625.97
2023-06-29T16:33:41.170Z,100621.44
2023-06-29T16:36:09.074Z,100624.00
2023-06-29T16:38:37.082Z,100618.28
2023-06-29T16:41:06.283Z,100625.69
2023-06-29T16:43:34.124Z,100620.47
2023-06-29T16:46:02.038Z,100620.13
2023-06-29T16:48:29.983Z,100612.69
2023-06-29T16:50:57.952Z,100611.97
2023-06-29T16:53:25.883Z,100613.03
2023-06-29T16:55:54.788Z,100607.66
2023-06-29T16:58:27.549Z,100607.69
2023-06-29T17:00:55.446Z,100607.22
2023-06-29T17:03:23.465Z,100599.44
2023-06-29T17:05:51.377Z,100605.38
2023-06-29T17:08:19.355Z,100606.84
2023-06-29T17:10:47.277Z,100611.63
2023-06-29T17:13:15.218Z,100608.94
2023-06-29T17:15:44.836Z,100605.88
2023-06-29T17:18:12.968Z,100609.41
2023-06-29T17:20:40.882Z,100612.94
2023-06-29T17:23:08.756Z,100614.41
2023-06-29T17:25:36.562Z,100610.00
2023-06-29T17:28:04.582Z,100605.72
2023-06-29T17:30:32.459Z,100610.44
2023-06-29T17:33:01.780Z,100610.34
2023-06-29T17:35:29.656Z,100604.53
2023-06-29T17:37:57.486Z,100605.16
2023-06-29T17:40:25.533Z,100609.13
2023-06-29T17:42:53.351Z,100606.25
2023-06-29T17:45:21.248Z,100606.72
2023-06-29T17:47:49.266Z,100604.91
2023-06-29T17:50:18.643Z,100607.09
2023-06-29T17:52:48.770Z,100599.06
2023-06-29T17:55:17.217Z,100602.13
2023-06-29T17:57:45.013Z,100608.91
2023-06-29T18:00:14.109Z,100609.03
2023-06-29T18:02:42.096Z,100605.53
2023-06-29T18:05:10.781Z,100603.16
2023-06-29T18:07:40.304Z,100610.31
2023-06-29T18:10:10.460Z,100601.44
2023-06-29T18:12:39.410Z,100603.75
2023-06-29T18:15:08.424Z,100598.66
2023-06-29T18:17:36.493Z,100606.91
2023-06-29T18:20:04.619Z,100604.81
2023-06-29T18:22:32.513Z,100603.00
2023-06-29T18:25:01.881Z,100601.13
2023-06-29T18:27:29.916Z,100600.44
2023-06-29T18:29:58.000Z,100606.72
2023-06-29T18:32:25.850Z,100605.75
2023-06-29T18:34:53.845Z,100606.59
2023-06-29T18:37:21.821Z,100603.84
2023-06-29T18:39:49.729Z,100604.94
2023-06-29T18:42:21.562Z,100598.19
2023-06-29T18:44:49.928Z,100597.06
2023-06-29T18:47:18.090Z,100591.66
2023-06-29T18:49:51.948Z,100586.53
2023-06-29T18:52:21.496Z,100596.72
2023-06-29T18:54:49.566Z,100586.13
2023-06-29T18:57:18.936Z,100581.38
2023-06-29T18:59:46.817Z,100591.44
2023-06-29T19:02:14.817Z,100588.94
2023-06-29T19:04:42.707Z,100582.41
2023-06-29T19:07:12.598Z,100587.75
2023-06-29T19:12:08.971Z,100596.16
2023-06-29T19:14:39.562Z,100598.53
2023-06-29T19:17:07.663Z,100598.84
2023-06-29T19:19:35.920Z,100597.69
2023-06-29T19:22:03.887Z,100599.38
2023-06-29T19:24:31.729Z,100600.13
2023-06-29T19:26:59.623Z,100601.84
2023-06-29T19:29:27.483Z,100599.94
2023-06-29T19:31:56.797Z,100604.75
2023-06-29T19:34:25.961Z,100607.78
2023-06-29T19:36:53.864Z,100612.47
2023-06-29T19:39:21.724Z,100603.63
2023-06-29T19:41:49.533Z,100612.28
2023-06-29T19:44:17.779Z,100617.50
2023-06-29T19:46:47.511Z,100616.84
2023-06-29T19:49:16.938Z,100619.53
2023-06-29T19:51:44.818Z,100618.16
2023-06-29T19:54:12.623Z,100622.00
2023-06-29T19:56:40.567Z,100626.56
2023-06-29T19:59:08.461Z,100630.53
2023-06-29T20:01:36.258Z,100629.38
2023-06-29T20:04:04.377Z,100631.81
2023-06-29T20:06:34.368Z,100637.44
2023-06-29T20:09:02.276Z,100635.09
2023-06-29T20:11:30.084Z,100632.72
2023-06-29T20:13:58.114Z,100635.28
2023-06-29T20:16:26.021Z,100631.44
2023-06-29T20:18:53.987Z,100626.09
2023-06-29T20:21:21.852Z,100619.50
2023-06-29T20:23:52.046Z,100616.41
2023-06-29T20:26:20.633Z,100619.16
2023-06-29T20:28:48.557Z,100629.81
2023-06-29T20:31:16.472Z,100627.94
2023-06-29T20:33:44.698Z,100627.69
2023-06-29T20:36:15.024Z,100631.50
2023-06-29T20:38:43.460Z,100619.69
2023-06-29T20:41:13.877Z,100629.56
2023-06-29T20:43:47.520Z,100622.34
2023-06-29T20:46:16.266Z,100623.50
2023-06-29T20:48:44.505Z,100620.38
2023-06-29T20:51:17.518Z,100623.69
2023-06-29T20:53:45.879Z,100625.91
2023-06-29T20:56:15.287Z,100629.84
2023-06-29T20:58:43.132Z,100637.72
2023-06-29T21:01:11.136Z,100637.94
2023-06-29T21:03:44.408Z,100640.22
2023-06-29T21:06:12.715Z,100635.09
2023-06-29T21:08:40.607Z,100635.50
2023-06-29T21:11:08.864Z,100641.03
2023-06-29T21:13:38.559Z,100638.84
2023-06-29T21:16:07.078Z,100642.50
2023-06-29T21:18:35.752Z,100640.78
2023-06-29T21:21:04.146Z,100641.56
2023-06-29T21:23:32.211Z,100650.91
2023-06-29T21:26:00.595Z,100651.00
2023-06-29T21:28:29.336Z,100652.22
2023-06-29T21:30:59.441Z,100646.25
2023-06-29T21:33:28.241Z,100647.97
2023-06-29T21:35:56.962Z,100642.16
2023-06-29T21:38:31.148Z,100647.69
2023-06-29T21:40:59.759Z,100642.56
2023-06-29T21:43:27.676Z,100640.78
2023-06-29T21:45:55.627Z,100638.28
2023-06-29T21:48:24.989Z,100631.03
2023-06-29T21:50:53.409Z,100630.66
2023-06-29T21:53:21.684Z,100630.78
2023-06-29T21:55:49.690Z,100639.13
2023-06-29T21:58:17.504Z,100644.25
2023-06-29T22:00:45.981Z,100644.16
2023-06-29T22:03:13.975Z,100635.03
2023-06-29T22:05:43.521Z,100634.09
2023-06-29T22:08:11.570Z,100641.31
2023-06-29T22:10:39.471Z,100646.53
2023-06-29T22:13:07.366Z,100642.91
2023-06-29T22:15:38.177Z,100642.41
2023-06-29T22:18:06.822Z,100645.63
2023-06-29T22:20:35.140Z,100634.78
2023-06-29T22:23:04.389Z,100634.13
2023-06-29T22:25:32.674Z,100631.59
2023-06-29T22:28:01.076Z,100638.81
2023-06-29T22:30:29.033Z,100633.19
2023-06-29T22:32:57.652Z,100627.41
2023-06-29T22:35:25.814Z,100625.41
2023-06-29T22:37:54.071Z,100621.78
2023-06-29T22:40:23.299Z,100626.16
2023-06-29T22:42:51.402Z,100618.16
2023-06-29T22:45:20.011Z,100614.66
2023-06-29T22:47:48.064Z,100627.31
2023-06-29T22:50:15.996Z,100625.34
2023-06-29T22:52:43.875Z,100619.34
2023-06-29T22:55:11.744Z,100627.31
2023-06-29T22:57:41.076Z,100620.16
2023-06-29T23:00:11.798Z,100626.56
2023-06-29T23:02:39.937Z,100624.16
2023-06-29T23:05:08.616Z,100630.94
2023-06-29T23:07:44.669Z,100629.84
2023-06-29T23:10:13.935Z,100633.28
2023-06-29T23:12:46.462Z,100633.00
2023-06-29T23:15:14.742Z,100632.34
2023-06-29T23:17:42.665Z,100630.13
2023-06-29T23:20:14.081Z,100627.81
2023-06-29T23:22:43.268Z,100628.16
2023-06-29T23:25:11.434Z,100625.41
2023-06-29T23:27:42.685Z,100620.19
2023-06-29T23:30:13.927Z,100623.56
2023-06-29T23:32:42.322Z,100628.41
2023-06-29T23:35:11.158Z,100626.63
2023-06-29T23:37:39.386Z,100624.38
2023-06-29T23:40:11.681Z,100622.94
2023-06-29T23:42:40.219Z,100625.47
2023-06-29T23:45:10.734Z,100629.84
2023-06-29T23:47:40.863Z,100619.84
2023-06-29T23:50:11.978Z,100612.28
2023-06-29T23:52:40.414Z,100616.66
2023-06-29T23:55:09.219Z,100617.41
2023-06-29T23:57:37.217Z,100618.78
